sensor_id;sensor_type;location;lat;lon;timestamp;temperature;humidity
73955;DHT22;62306;52.516;13.290;2022-12-19T00:00:34;-3.50;87.60
73955;DHT22;62306;52.516;13.290;2022-12-19T00:03:03;-3.50;87.80
73955;DHT22;62306;52.516;13.290;2022-12-19T00:05:30;-3.50;87.80
73955;DHT22;62306;52.516;13.290;2022-12-19T00:07:57;-3.50;87.90
73955;DHT22;62306;52.516;13.290;2022-12-19T00:10:24;-3.50;88.10
73955;DHT22;62306;52.516;13.290;2022-12-19T00:12:51;-3.50;87.90
73955;DHT22;62306;52.516;13.290;2022-12-19T00:15:18;-3.50;87.80
73955;DHT22;62306;52.516;13.290;2022-12-19T00:17:45;-3.50;87.50
73955;DHT22;62306;52.516;13.290;2022-12-19T00:20:13;-3.50;87.60
73955;DHT22;62306;52.516;13.290;2022-12-19T00:22:40;-3.40;87.80
73955;DHT22;62306;52.516;13.290;2022-12-19T00:25:08;-3.40;87.90
73955;DHT22;62306;52.516;13.290;2022-12-19T00:27:35;-3.40;87.10
73955;DHT22;62306;52.516;13.290;2022-12-19T00:30:02;-3.40;87.10
73955;DHT22;62306;52.516;13.290;2022-12-19T00:32:29;-3.40;87.10
73955;DHT22;62306;52.516;13.290;2022-12-19T00:34:56;-3.30;87.00
73955;DHT22;62306;52.516;13.290;2022-12-19T00:37:25;-3.30;87.10
73955;DHT22;62306;52.516;13.290;2022-12-19T00:39:53;-3.30;86.80
73955;DHT22;62306;52.516;13.290;2022-12-19T00:42:20;-3.30;86.50
73955;DHT22;62306;52.516;13.290;2022-12-19T00:44:47;-3.30;86.40
73955;DHT22;62306;52.516;13.290;2022-12-19T00:47:13;-3.30;86.50
73955;DHT22;62306;52.516;13.290;2022-12-19T00:49:40;-3.30;86.40
73955;DHT22;62306;52.516;13.290;2022-12-19T00:52:07;-3.20;86.70
73955;DHT22;62306;52.516;13.290;2022-12-19T00:54:36;-3.20;86.30
73955;DHT22;62306;52.516;13.290;2022-12-19T00:57:03;-3.20;86.20
73955;DHT22;62306;52.516;13.290;2022-12-19T00:59:30;-3.20;86.30
73955;DHT22;62306;52.516;13.290;2022-12-19T01:01:57;-3.20;86.10
73955;DHT22;62306;52.516;13.290;2022-12-19T01:04:24;-3.20;86.20
73955;DHT22;62306;52.516;13.290;2022-12-19T01:06:51;-3.20;86.20
73955;DHT22;62306;52.516;13.290;2022-12-19T01:09:18;-3.20;86.20
73955;DHT22;62306;52.516;13.290;2022-12-19T01:11:49;-3.20;86.20
73955;DHT22;62306;52.516;13.290;2022-12-19T01:14:34;-3.10;86.40
73955;DHT22;62306;52.516;13.290;2022-12-19T01:17:01;-3.20;86.20
73955;DHT22;62306;52.516;13.290;2022-12-19T01:19:29;-3.20;85.90
73955;DHT22;62306;52.516;13.290;2022-12-19T01:21:56;-3.20;86.20
73955;DHT22;62306;52.516;13.290;2022-12-19T01:24:23;-3.20;86.30
73955;DHT22;62306;52.516;13.290;2022-12-19T01:26:51;-3.20;86.30
73955;DHT22;62306;52.516;13.290;2022-12-19T01:29:18;-3.10;86.30
73955;DHT22;62306;52.516;13.290;2022-12-19T01:31:45;-3.10;86.00
73955;DHT22;62306;52.516;13.290;2022-12-19T01:34:12;-3.10;85.80
73955;DHT22;62306;52.516;13.290;2022-12-19T01:36:39;-3.10;86.00
73955;DHT22;62306;52.516;13.290;2022-12-19T01:39:06;-3.10;85.80
73955;DHT22;62306;52.516;13.290;2022-12-19T01:41:33;-3.10;85.50
73955;DHT22;62306;52.516;13.290;2022-12-19T01:44:04;-3.00;85.40
73955;DHT22;62306;52.516;13.290;2022-12-19T01:46:33;-3.00;85.70
73955;DHT22;62306;52.516;13.290;2022-12-19T01:49:02;-3.00;85.40
73955;DHT22;62306;52.516;13.290;2022-12-19T01:51:33;-2.90;85.10
73955;DHT22;62306;52.516;13.290;2022-12-19T01:54:03;-3.00;84.90
73955;DHT22;62306;52.516;13.290;2022-12-19T01:56:33;-2.90;85.40
73955;DHT22;62306;52.516;13.290;2022-12-19T01:59:06;-2.90;84.90
73955;DHT22;62306;52.516;13.290;2022-12-19T02:01:34;-2.90;84.60
73955;DHT22;62306;52.516;13.290;2022-12-19T02:04:02;-2.80;84.60
73955;DHT22;62306;52.516;13.290;2022-12-19T02:06:30;-2.80;84.30
73955;DHT22;62306;52.516;13.290;2022-12-19T02:08:59;-2.80;84.20
73955;DHT22;62306;52.516;13.290;2022-12-19T02:11:27;-2.80;84.10
73955;DHT22;62306;52.516;13.290;2022-12-19T02:13:54;-2.80;84.30
73955;DHT22;62306;52.516;13.290;2022-12-19T02:16:33;-2.80;84.20
73955;DHT22;62306;52.516;13.290;2022-12-19T02:19:17;-2.90;84.20
73955;DHT22;62306;52.516;13.290;2022-12-19T02:21:53;-2.90;84.30
73955;DHT22;62306;52.516;13.290;2022-12-19T02:28:02;-2.90;84.40
73955;DHT22;62306;52.516;13.290;2022-12-19T02:30:47;-2.90;84.60
73955;DHT22;62306;52.516;13.290;2022-12-19T02:33:23;-2.90;84.80
73955;DHT22;62306;52.516;13.290;2022-12-19T02:35:51;-2.90;84.80
73955;DHT22;62306;52.516;13.290;2022-12-19T02:38:23;-3.00;84.80
73955;DHT22;62306;52.516;13.290;2022-12-19T02:40:56;-3.00;85.00
73955;DHT22;62306;52.516;13.290;2022-12-19T02:43:28;-3.00;85.10
73955;DHT22;62306;52.516;13.290;2022-12-19T02:45:58;-3.00;85.40
73955;DHT22;62306;52.516;13.290;2022-12-19T02:48:27;-3.00;85.50
73955;DHT22;62306;52.516;13.290;2022-12-19T02:50:55;-3.00;85.30
73955;DHT22;62306;52.516;13.290;2022-12-19T02:53:22;-3.00;85.60
73955;DHT22;62306;52.516;13.290;2022-12-19T02:55:55;-3.10;85.70
73955;DHT22;62306;52.516;13.290;2022-12-19T02:58:50;-3.10;86.00
73955;DHT22;62306;52.516;13.290;2022-12-19T03:01:30;-3.10;86.30
73955;DHT22;62306;52.516;13.290;2022-12-19T03:04:12;-3.10;86.10
73955;DHT22;62306;52.516;13.290;2022-12-19T03:06:45;-3.10;85.70
73955;DHT22;62306;52.516;13.290;2022-12-19T03:09:19;-3.00;86.10
73955;DHT22;62306;52.516;13.290;2022-12-19T03:11:56;-3.00;85.50
73955;DHT22;62306;52.516;13.290;2022-12-19T03:14:27;-3.00;86.10
73955;DHT22;62306;52.516;13.290;2022-12-19T03:17:02;-3.10;85.60
73955;DHT22;62306;52.516;13.290;2022-12-19T03:19:29;-3.00;85.30
73955;DHT22;62306;52.516;13.290;2022-12-19T03:21:57;-2.90;85.80
73955;DHT22;62306;52.516;13.290;2022-12-19T03:24:24;-3.00;85.10
73955;DHT22;62306;52.516;13.290;2022-12-19T03:26:55;-3.00;85.30
73955;DHT22;62306;52.516;13.290;2022-12-19T03:29:27;-3.00;85.10
73955;DHT22;62306;52.516;13.290;2022-12-19T03:32:00;-2.90;85.50
73955;DHT22;62306;52.516;13.290;2022-12-19T03:34:31;-3.00;85.10
73955;DHT22;62306;52.516;13.290;2022-12-19T03:37:02;-2.90;85.20
73955;DHT22;62306;52.516;13.290;2022-12-19T03:39:30;-2.90;85.30
73955;DHT22;62306;52.516;13.290;2022-12-19T03:41:59;-3.00;85.40
73955;DHT22;62306;52.516;13.290;2022-12-19T03:44:44;-2.90;85.40
73955;DHT22;62306;52.516;13.290;2022-12-19T03:47:17;-3.00;85.40
73955;DHT22;62306;52.516;13.290;2022-12-19T03:49:45;-3.00;85.50
73955;DHT22;62306;52.516;13.290;2022-12-19T03:52:21;-3.00;85.50
73955;DHT22;62306;52.516;13.290;2022-12-19T03:54:53;-3.00;86.00
73955;DHT22;62306;52.516;13.290;2022-12-19T03:57:28;-3.00;85.60
73955;DHT22;62306;52.516;13.290;2022-12-19T04:00:03;-3.00;85.90
73955;DHT22;62306;52.516;13.290;2022-12-19T04:02:35;-3.00;85.70
73955;DHT22;62306;52.516;13.290;2022-12-19T04:05:03;-3.00;85.70
73955;DHT22;62306;52.516;13.290;2022-12-19T04:07:32;-3.00;85.90
73955;DHT22;62306;52.516;13.290;2022-12-19T04:10:00;-2.90;86.10
73955;DHT22;62306;52.516;13.290;2022-12-19T04:12:34;-3.00;86.00
73955;DHT22;62306;52.516;13.290;2022-12-19T04:15:03;-3.00;85.90
73955;DHT22;62306;52.516;13.290;2022-12-19T04:17:36;-3.00;86.10
73955;DHT22;62306;52.516;13.290;2022-12-19T04:20:06;-3.00;85.50
73955;DHT22;62306;52.516;13.290;2022-12-19T04:22:37;-3.00;85.60
73955;DHT22;62306;52.516;13.290;2022-12-19T04:25:08;-3.00;85.80
73955;DHT22;62306;52.516;13.290;2022-12-19T04:27:38;-3.00;86.10
73955;DHT22;62306;52.516;13.290;2022-12-19T04:30:08;-3.00;86.00
73955;DHT22;62306;52.516;13.290;2022-12-19T04:32:37;-3.00;86.00
73955;DHT22;62306;52.516;13.290;2022-12-19T04:35:05;-3.00;85.60
73955;DHT22;62306;52.516;13.290;2022-12-19T04:37:32;-3.00;85.90
73955;DHT22;62306;52.516;13.290;2022-12-19T04:39:59;-3.00;85.90
73955;DHT22;62306;52.516;13.290;2022-12-19T04:42:26;-2.90;85.90
73955;DHT22;62306;52.516;13.290;2022-12-19T04:44:53;-2.90;85.60
73955;DHT22;62306;52.516;13.290;2022-12-19T04:47:20;-2.90;85.80
73955;DHT22;62306;52.516;13.290;2022-12-19T04:49:49;-2.90;85.60
73955;DHT22;62306;52.516;13.290;2022-12-19T04:52:16;-2.90;85.70
73955;DHT22;62306;52.516;13.290;2022-12-19T04:54:43;-2.90;86.10
73955;DHT22;62306;52.516;13.290;2022-12-19T04:57:10;-2.90;86.10
73955;DHT22;62306;52.516;13.290;2022-12-19T04:59:37;-2.90;86.10
73955;DHT22;62306;52.516;13.290;2022-12-19T05:02:04;-2.90;86.00
73955;DHT22;62306;52.516;13.290;2022-12-19T05:04:31;-2.90;86.00
73955;DHT22;62306;52.516;13.290;2022-12-19T05:06:59;-3.00;86.20
73955;DHT22;62306;52.516;13.290;2022-12-19T05:09:26;-3.00;85.70
73955;DHT22;62306;52.516;13.290;2022-12-19T05:11:53;-3.00;86.30
73955;DHT22;62306;52.516;13.290;2022-12-19T05:14:20;-3.10;86.30
73955;DHT22;62306;52.516;13.290;2022-12-19T05:16:47;-3.00;86.70
73955;DHT22;62306;52.516;13.290;2022-12-19T05:19:14;-3.00;86.50
73955;DHT22;62306;52.516;13.290;2022-12-19T05:21:41;-3.00;86.60
73955;DHT22;62306;52.516;13.290;2022-12-19T05:24:10;-3.10;86.80
73955;DHT22;62306;52.516;13.290;2022-12-19T05:26:37;-3.10;86.90
73955;DHT22;62306;52.516;13.290;2022-12-19T05:29:04;-3.10;87.10
73955;DHT22;62306;52.516;13.290;2022-12-19T05:31:31;-3.10;87.10
73955;DHT22;62306;52.516;13.290;2022-12-19T05:33:58;-3.00;86.70
73955;DHT22;62306;52.516;13.290;2022-12-19T05:36:25;-3.00;87.10
73955;DHT22;62306;52.516;13.290;2022-12-19T05:38:52;-2.90;86.80
73955;DHT22;62306;52.516;13.290;2022-12-19T05:41:20;-2.90;86.70
73955;DHT22;62306;52.516;13.290;2022-12-19T05:43:50;-2.80;86.30
73955;DHT22;62306;52.516;13.290;2022-12-19T05:46:18;-2.80;86.20
73955;DHT22;62306;52.516;13.290;2022-12-19T05:48:45;-2.80;86.10
73955;DHT22;62306;52.516;13.290;2022-12-19T05:51:12;-2.70;85.50
73955;DHT22;62306;52.516;13.290;2022-12-19T05:53:40;-2.70;85.70
73955;DHT22;62306;52.516;13.290;2022-12-19T05:56:09;-2.70;85.90
73955;DHT22;62306;52.516;13.290;2022-12-19T05:58:38;-2.70;85.70
73955;DHT22;62306;52.516;13.290;2022-12-19T06:01:07;-2.60;85.70
73955;DHT22;62306;52.516;13.290;2022-12-19T06:03:35;-2.60;85.30
73955;DHT22;62306;52.516;13.290;2022-12-19T06:06:03;-2.60;85.20
73955;DHT22;62306;52.516;13.290;2022-12-19T06:08:30;-2.60;85.60
73955;DHT22;62306;52.516;13.290;2022-12-19T06:10:58;-2.50;85.10
73955;DHT22;62306;52.516;13.290;2022-12-19T06:13:25;-2.50;85.30
73955;DHT22;62306;52.516;13.290;2022-12-19T06:15:57;-2.50;85.40
73955;DHT22;62306;52.516;13.290;2022-12-19T06:18:25;-2.50;84.90
73955;DHT22;62306;52.516;13.290;2022-12-19T06:20:57;-2.40;84.70
73955;DHT22;62306;52.516;13.290;2022-12-19T06:23:24;-2.30;84.30
73955;DHT22;62306;52.516;13.290;2022-12-19T06:25:51;-2.30;84.20
73955;DHT22;62306;52.516;13.290;2022-12-19T06:28:18;-2.30;84.00
73955;DHT22;62306;52.516;13.290;2022-12-19T06:30:45;-2.30;84.00
73955;DHT22;62306;52.516;13.290;2022-12-19T06:33:14;-2.30;83.70
73955;DHT22;62306;52.516;13.290;2022-12-19T06:35:40;-2.20;83.70
73955;DHT22;62306;52.516;13.290;2022-12-19T06:38:08;-2.20;83.30
73955;DHT22;62306;52.516;13.290;2022-12-19T06:40:40;-2.20;83.60
73955;DHT22;62306;52.516;13.290;2022-12-19T06:43:25;-2.10;83.30
73955;DHT22;62306;52.516;13.290;2022-12-19T06:45:52;-2.10;83.20
73955;DHT22;62306;52.516;13.290;2022-12-19T06:48:20;-2.10;82.90
73955;DHT22;62306;52.516;13.290;2022-12-19T06:50:47;-2.20;83.30
73955;DHT22;62306;52.516;13.290;2022-12-19T06:53:14;-2.20;83.30
73955;DHT22;62306;52.516;13.290;2022-12-19T06:55:42;-2.10;83.20
73955;DHT22;62306;52.516;13.290;2022-12-19T06:58:09;-2.10;83.20
73955;DHT22;62306;52.516;13.290;2022-12-19T07:00:36;-2.00;82.50
73955;DHT22;62306;52.516;13.290;2022-12-19T07:03:04;-2.00;83.40
73955;DHT22;62306;52.516;13.290;2022-12-19T07:05:35;-2.00;82.60
73955;DHT22;62306;52.516;13.290;2022-12-19T07:08:02;-1.90;82.10
73955;DHT22;62306;52.516;13.290;2022-12-19T07:10:29;-1.90;81.80
73955;DHT22;62306;52.516;13.290;2022-12-19T07:12:56;-1.90;82.00
73955;DHT22;62306;52.516;13.290;2022-12-19T07:15:23;-1.90;81.70
73955;DHT22;62306;52.516;13.290;2022-12-19T07:17:51;-1.80;82.00
73955;DHT22;62306;52.516;13.290;2022-12-19T07:20:19;-1.80;81.40
73955;DHT22;62306;52.516;13.290;2022-12-19T07:22:47;-1.80;81.20
73955;DHT22;62306;52.516;13.290;2022-12-19T07:25:15;-1.70;81.10
73955;DHT22;62306;52.516;13.290;2022-12-19T07:27:43;-1.60;81.50
73955;DHT22;62306;52.516;13.290;2022-12-19T07:30:11;-1.50;80.10
73955;DHT22;62306;52.516;13.290;2022-12-19T07:32:38;-1.60;80.40
73955;DHT22;62306;52.516;13.290;2022-12-19T07:35:06;-1.60;80.80
73955;DHT22;62306;52.516;13.290;2022-12-19T07:37:33;-1.60;80.60
73955;DHT22;62306;52.516;13.290;2022-12-19T07:40:01;-1.60;80.20
73955;DHT22;62306;52.516;13.290;2022-12-19T07:42:28;-1.60;79.80
73955;DHT22;62306;52.516;13.290;2022-12-19T07:44:56;-1.50;79.80
73955;DHT22;62306;52.516;13.290;2022-12-19T07:47:23;-1.50;79.90
73955;DHT22;62306;52.516;13.290;2022-12-19T07:49:52;-1.50;79.20
73955;DHT22;62306;52.516;13.290;2022-12-19T07:52:19;-1.40;79.30
73955;DHT22;62306;52.516;13.290;2022-12-19T07:54:46;-1.40;78.80
73955;DHT22;62306;52.516;13.290;2022-12-19T07:57:15;-1.30;78.30
73955;DHT22;62306;52.516;13.290;2022-12-19T07:59:42;-1.20;78.60
73955;DHT22;62306;52.516;13.290;2022-12-19T08:02:09;-1.10;78.20
73955;DHT22;62306;52.516;13.290;2022-12-19T08:04:37;-1.10;77.70
73955;DHT22;62306;52.516;13.290;2022-12-19T08:07:04;-1.10;77.90
73955;DHT22;62306;52.516;13.290;2022-12-19T08:09:31;-1.10;77.80
73955;DHT22;62306;52.516;13.290;2022-12-19T08:11:58;-1.20;77.70
73955;DHT22;62306;52.516;13.290;2022-12-19T08:14:26;-1.10;77.90
73955;DHT22;62306;52.516;13.290;2022-12-19T08:16:53;-1.20;77.40
73955;DHT22;62306;52.516;13.290;2022-12-19T08:19:20;-1.10;78.20
73955;DHT22;62306;52.516;13.290;2022-12-19T08:21:50;-1.00;77.80
73955;DHT22;62306;52.516;13.290;2022-12-19T08:24:19;-0.90;77.20
73955;DHT22;62306;52.516;13.290;2022-12-19T08:26:46;-0.80;76.50
73955;DHT22;62306;52.516;13.290;2022-12-19T08:29:21;-0.80;76.00
73955;DHT22;62306;52.516;13.290;2022-12-19T08:31:50;-0.80;76.30
73955;DHT22;62306;52.516;13.290;2022-12-19T08:34:17;-0.70;75.60
73955;DHT22;62306;52.516;13.290;2022-12-19T08:36:44;-0.70;75.40
73955;DHT22;62306;52.516;13.290;2022-12-19T08:39:11;-0.60;75.60
73955;DHT22;62306;52.516;13.290;2022-12-19T08:41:38;-0.60;75.90
73955;DHT22;62306;52.516;13.290;2022-12-19T08:44:05;-0.50;75.30
73955;DHT22;62306;52.516;13.290;2022-12-19T08:46:32;-0.50;75.20
73955;DHT22;62306;52.516;13.290;2022-12-19T08:49:01;-0.50;75.20
73955;DHT22;62306;52.516;13.290;2022-12-19T08:51:28;-0.50;75.00
73955;DHT22;62306;52.516;13.290;2022-12-19T08:53:55;-0.60;75.00
73955;DHT22;62306;52.516;13.290;2022-12-19T08:56:22;-0.50;75.30
73955;DHT22;62306;52.516;13.290;2022-12-19T08:58:50;-0.50;75.10
73955;DHT22;62306;52.516;13.290;2022-12-19T09:01:18;-0.50;75.10
73955;DHT22;62306;52.516;13.290;2022-12-19T09:03:48;-0.50;75.20
73955;DHT22;62306;52.516;13.290;2022-12-19T09:06:17;-0.50;74.80
73955;DHT22;62306;52.516;13.290;2022-12-19T09:08:44;-0.50;74.90
73955;DHT22;62306;52.516;13.290;2022-12-19T09:11:13;-0.40;74.90
73955;DHT22;62306;52.516;13.290;2022-12-19T09:13:41;-0.40;75.10
73955;DHT22;62306;52.516;13.290;2022-12-19T09:16:11;-0.30;75.20
73955;DHT22;62306;52.516;13.290;2022-12-19T09:18:39;-0.30;74.70
73955;DHT22;62306;52.516;13.290;2022-12-19T09:21:07;-0.30;75.00
73955;DHT22;62306;52.516;13.290;2022-12-19T09:23:35;-0.30;74.90
73955;DHT22;62306;52.516;13.290;2022-12-19T09:26:04;-0.20;74.70
73955;DHT22;62306;52.516;13.290;2022-12-19T09:28:33;-0.20;74.80
73955;DHT22;62306;52.516;13.290;2022-12-19T09:31:02;-0.20;75.10
73955;DHT22;62306;52.516;13.290;2022-12-19T09:33:31;-0.10;74.80
73955;DHT22;62306;52.516;13.290;2022-12-19T09:35:59;0.00;74.60
73955;DHT22;62306;52.516;13.290;2022-12-19T09:38:27;0.00;74.60
73955;DHT22;62306;52.516;13.290;2022-12-19T09:41:08;0.10;74.60
73955;DHT22;62306;52.516;13.290;2022-12-19T09:43:51;0.10;74.60
73955;DHT22;62306;52.516;13.290;2022-12-19T09:46:28;0.10;74.70
73955;DHT22;62306;52.516;13.290;2022-12-19T09:48:56;0.10;74.60
73955;DHT22;62306;52.516;13.290;2022-12-19T09:51:31;0.20;75.00
73955;DHT22;62306;52.516;13.290;2022-12-19T09:54:05;0.20;74.70
73955;DHT22;62306;52.516;13.290;2022-12-19T09:56:38;0.30;74.40
73955;DHT22;62306;52.516;13.290;2022-12-19T09:59:12;0.30;74.20
73955;DHT22;62306;52.516;13.290;2022-12-19T10:01:49;0.40;74.20
73955;DHT22;62306;52.516;13.290;2022-12-19T10:04:18;0.50;74.40
73955;DHT22;62306;52.516;13.290;2022-12-19T10:06:45;0.50;74.20
73955;DHT22;62306;52.516;13.290;2022-12-19T10:09:16;0.60;74.00
73955;DHT22;62306;52.516;13.290;2022-12-19T10:11:57;0.70;73.40
73955;DHT22;62306;52.516;13.290;2022-12-19T10:14:35;0.70;73.60
73955;DHT22;62306;52.516;13.290;2022-12-19T10:17:14;0.80;72.90
73955;DHT22;62306;52.516;13.290;2022-12-19T10:19:51;0.90;73.20
73955;DHT22;62306;52.516;13.290;2022-12-19T10:22:26;0.90;72.40
73955;DHT22;62306;52.516;13.290;2022-12-19T10:25:25;1.00;72.70
73955;DHT22;62306;52.516;13.290;2022-12-19T10:27:58;1.10;72.30
73955;DHT22;62306;52.516;13.290;2022-12-19T10:30:31;1.10;71.70
73955;DHT22;62306;52.516;13.290;2022-12-19T10:33:09;1.10;71.90
73955;DHT22;62306;52.516;13.290;2022-12-19T10:35:41;1.10;72.10
73955;DHT22;62306;52.516;13.290;2022-12-19T10:38:18;1.20;71.70
73955;DHT22;62306;52.516;13.290;2022-12-19T10:40:52;1.30;71.60
73955;DHT22;62306;52.516;13.290;2022-12-19T10:43:30;1.30;71.30
73955;DHT22;62306;52.516;13.290;2022-12-19T10:46:10;1.40;71.40
73955;DHT22;62306;52.516;13.290;2022-12-19T10:48:39;1.40;71.00
73955;DHT22;62306;52.516;13.290;2022-12-19T10:51:11;1.50;70.90
73955;DHT22;62306;52.516;13.290;2022-12-19T10:53:39;1.60;70.50
73955;DHT22;62306;52.516;13.290;2022-12-19T10:56:17;1.60;70.30
73955;DHT22;62306;52.516;13.290;2022-12-19T10:58:50;1.60;70.60
73955;DHT22;62306;52.516;13.290;2022-12-19T11:01:24;1.60;70.40
73955;DHT22;62306;52.516;13.290;2022-12-19T11:03:53;1.60;70.80
73955;DHT22;62306;52.516;13.290;2022-12-19T11:06:47;1.70;71.10
73955;DHT22;62306;52.516;13.290;2022-12-19T11:09:26;1.70;71.60
73955;DHT22;62306;52.516;13.290;2022-12-19T11:12:00;1.70;71.80
73955;DHT22;62306;52.516;13.290;2022-12-19T11:14:35;1.70;72.50
73955;DHT22;62306;52.516;13.290;2022-12-19T11:17:03;1.70;72.40
73955;DHT22;62306;52.516;13.290;2022-12-19T11:19:32;1.70;74.30
73955;DHT22;62306;52.516;13.290;2022-12-19T11:22:03;1.60;74.70
73955;DHT22;62306;52.516;13.290;2022-12-19T11:24:35;1.70;75.70
73955;DHT22;62306;52.516;13.290;2022-12-19T11:27:28;1.70;76.30
73955;DHT22;62306;52.516;13.290;2022-12-19T11:29:58;1.70;78.30
73955;DHT22;62306;52.516;13.290;2022-12-19T11:32:32;1.70;78.80
73955;DHT22;62306;52.516;13.290;2022-12-19T11:35:01;1.60;79.50
73955;DHT22;62306;52.516;13.290;2022-12-19T11:37:35;1.70;79.60
73955;DHT22;62306;52.516;13.290;2022-12-19T11:40:10;1.70;80.40
73955;DHT22;62306;52.516;13.290;2022-12-19T11:42:47;1.70;81.10
73955;DHT22;62306;52.516;13.290;2022-12-19T11:45:22;1.80;81.50
73955;DHT22;62306;52.516;13.290;2022-12-19T11:47:59;1.70;82.00
73955;DHT22;62306;52.516;13.290;2022-12-19T11:50:30;1.70;83.20
73955;DHT22;62306;52.516;13.290;2022-12-19T11:53:07;1.70;84.30
73955;DHT22;62306;52.516;13.290;2022-12-19T11:55:41;1.70;84.70
73955;DHT22;62306;52.516;13.290;2022-12-19T11:58:10;1.80;85.40
73955;DHT22;62306;52.516;13.290;2022-12-19T12:00:44;1.80;86.00
73955;DHT22;62306;52.516;13.290;2022-12-19T12:03:41;1.80;86.40
73955;DHT22;62306;52.516;13.290;2022-12-19T12:06:11;1.80;87.30
73955;DHT22;62306;52.516;13.290;2022-12-19T12:09:02;1.70;87.90
73955;DHT22;62306;52.516;13.290;2022-12-19T12:11:40;1.80;89.20
73955;DHT22;62306;52.516;13.290;2022-12-19T12:14:23;1.80;89.80
73955;DHT22;62306;52.516;13.290;2022-12-19T12:17:11;1.80;90.10
73955;DHT22;62306;52.516;13.290;2022-12-19T12:19:54;1.80;90.30
73955;DHT22;62306;52.516;13.290;2022-12-19T12:22:36;1.90;90.70
73955;DHT22;62306;52.516;13.290;2022-12-19T12:25:19;1.80;90.90
73955;DHT22;62306;52.516;13.290;2022-12-19T12:27:59;1.80;91.20
73955;DHT22;62306;52.516;13.290;2022-12-19T12:30:32;1.80;91.50
73955;DHT22;62306;52.516;13.290;2022-12-19T12:33:15;1.90;92.00
73955;DHT22;62306;52.516;13.290;2022-12-19T12:35:48;1.80;92.30
73955;DHT22;62306;52.516;13.290;2022-12-19T12:38:38;1.80;92.60
73955;DHT22;62306;52.516;13.290;2022-12-19T12:41:13;1.90;92.70
73955;DHT22;62306;52.516;13.290;2022-12-19T12:43:56;1.90;92.80
73955;DHT22;62306;52.516;13.290;2022-12-19T12:46:26;2.00;92.90
73955;DHT22;62306;52.516;13.290;2022-12-19T12:49:01;2.00;93.10
73955;DHT22;62306;52.516;13.290;2022-12-19T12:51:29;2.00;93.50
73955;DHT22;62306;52.516;13.290;2022-12-19T12:54:00;1.90;93.70
73955;DHT22;62306;52.516;13.290;2022-12-19T12:56:30;1.90;93.80
73955;DHT22;62306;52.516;13.290;2022-12-19T12:59:19;2.00;94.10
73955;DHT22;62306;52.516;13.290;2022-12-19T13:01:53;2.00;94.30
73955;DHT22;62306;52.516;13.290;2022-12-19T13:04:29;2.00;94.40
73955;DHT22;62306;52.516;13.290;2022-12-19T13:07:18;2.00;94.50
73955;DHT22;62306;52.516;13.290;2022-12-19T13:09:49;2.00;94.70
73955;DHT22;62306;52.516;13.290;2022-12-19T13:12:23;2.00;94.90
73955;DHT22;62306;52.516;13.290;2022-12-19T13:18:30;2.00;95.20
73955;DHT22;62306;52.516;13.290;2022-12-19T13:21:02;2.00;95.30
73955;DHT22;62306;52.516;13.290;2022-12-19T13:23:46;2.00;95.40
73955;DHT22;62306;52.516;13.290;2022-12-19T13:26:45;2.00;95.50
73955;DHT22;62306;52.516;13.290;2022-12-19T13:29:49;2.00;95.60
73955;DHT22;62306;52.516;13.290;2022-12-19T13:32:19;2.00;95.70
73955;DHT22;62306;52.516;13.290;2022-12-19T13:34:56;2.00;95.80
73955;DHT22;62306;52.516;13.290;2022-12-19T13:37:30;2.00;96.00
73955;DHT22;62306;52.516;13.290;2022-12-19T13:40:10;2.00;96.00
73955;DHT22;62306;52.516;13.290;2022-12-19T13:42:48;2.00;96.10
73955;DHT22;62306;52.516;13.290;2022-12-19T13:45:34;2.00;96.30
73955;DHT22;62306;52.516;13.290;2022-12-19T13:48:04;2.00;96.30
73955;DHT22;62306;52.516;13.290;2022-12-19T13:50:37;2.00;96.40
73955;DHT22;62306;52.516;13.290;2022-12-19T13:53:13;2.00;96.60
73955;DHT22;62306;52.516;13.290;2022-12-19T13:55:41;2.00;96.60
73955;DHT22;62306;52.516;13.290;2022-12-19T13:58:20;2.00;96.60
73955;DHT22;62306;52.516;13.290;2022-12-19T14:00:48;2.10;96.70
73955;DHT22;62306;52.516;13.290;2022-12-19T14:03:19;2.00;96.80
73955;DHT22;62306;52.516;13.290;2022-12-19T14:05:46;2.10;97.00
73955;DHT22;62306;52.516;13.290;2022-12-19T14:08:19;2.10;97.10
73955;DHT22;62306;52.516;13.290;2022-12-19T14:10:48;2.10;97.00
73955;DHT22;62306;52.516;13.290;2022-12-19T14:13:17;2.10;97.00
73955;DHT22;62306;52.516;13.290;2022-12-19T14:16:03;2.10;97.20
73955;DHT22;62306;52.516;13.290;2022-12-19T14:18:31;2.10;97.40
73955;DHT22;62306;52.516;13.290;2022-12-19T14:21:14;2.10;97.60
73955;DHT22;62306;52.516;13.290;2022-12-19T14:23:43;2.10;97.40
73955;DHT22;62306;52.516;13.290;2022-12-19T14:26:15;2.20;97.50
73955;DHT22;62306;52.516;13.290;2022-12-19T14:28:48;2.20;97.50
73955;DHT22;62306;52.516;13.290;2022-12-19T14:31:18;2.20;97.60
73955;DHT22;62306;52.516;13.290;2022-12-19T14:33:47;2.20;97.60
73955;DHT22;62306;52.516;13.290;2022-12-19T14:36:20;2.20;97.60
73955;DHT22;62306;52.516;13.290;2022-12-19T14:38:49;2.20;97.60
73955;DHT22;62306;52.516;13.290;2022-12-19T14:41:20;2.20;97.60
73955;DHT22;62306;52.516;13.290;2022-12-19T14:44:12;2.20;97.70
73955;DHT22;62306;52.516;13.290;2022-12-19T14:46:39;2.20;97.70
73955;DHT22;62306;52.516;13.290;2022-12-19T14:49:23;2.20;97.80
73955;DHT22;62306;52.516;13.290;2022-12-19T14:51:50;2.30;97.80
73955;DHT22;62306;52.516;13.290;2022-12-19T14:54:20;2.30;97.90
73955;DHT22;62306;52.516;13.290;2022-12-19T14:56:49;2.30;97.80
73955;DHT22;62306;52.516;13.290;2022-12-19T14:59:31;2.30;97.80
73955;DHT22;62306;52.516;13.290;2022-12-19T15:02:13;2.40;97.90
73955;DHT22;62306;52.516;13.290;2022-12-19T15:04:44;2.40;97.90
73955;DHT22;62306;52.516;13.290;2022-12-19T15:07:18;2.40;97.90
73955;DHT22;62306;52.516;13.290;2022-12-19T15:09:54;2.40;97.90
73955;DHT22;62306;52.516;13.290;2022-12-19T15:12:27;2.50;97.90
73955;DHT22;62306;52.516;13.290;2022-12-19T15:15:19;2.50;97.90
73955;DHT22;62306;52.516;13.290;2022-12-19T15:18:03;2.50;98.00
73955;DHT22;62306;52.516;13.290;2022-12-19T15:20:47;2.60;98.10
73955;DHT22;62306;52.516;13.290;2022-12-19T15:23:14;2.60;98.00
73955;DHT22;62306;52.516;13.290;2022-12-19T15:25:47;2.60;98.00
73955;DHT22;62306;52.516;13.290;2022-12-19T15:28:39;2.70;98.10
73955;DHT22;62306;52.516;13.290;2022-12-19T15:31:28;2.60;98.20
73955;DHT22;62306;52.516;13.290;2022-12-19T15:34:00;2.60;98.20
73955;DHT22;62306;52.516;13.290;2022-12-19T15:36:31;2.70;98.20
73955;DHT22;62306;52.516;13.290;2022-12-19T15:39:17;2.70;98.30
73955;DHT22;62306;52.516;13.290;2022-12-19T15:41:57;2.70;98.20
73955;DHT22;62306;52.516;13.290;2022-12-19T15:44:30;2.80;98.20
73955;DHT22;62306;52.516;13.290;2022-12-19T15:47:05;2.80;98.20
73955;DHT22;62306;52.516;13.290;2022-12-19T15:49:38;2.80;98.10
73955;DHT22;62306;52.516;13.290;2022-12-19T15:52:13;2.80;98.20
73955;DHT22;62306;52.516;13.290;2022-12-19T15:54:42;2.80;98.20
73955;DHT22;62306;52.516;13.290;2022-12-19T15:57:28;2.80;98.40